Randolph Air Force Base
KRND : now visible

Airfield :











YOU CAN JOIN US ON...

 
LOGIN :

Register | Disclaimer

   EN    FR    IT 

 









Legend :    VFR   Marginal VFR   IFR   Intensive IFR   Very Intensive IFR
Visi :
Ceiling :
>= 8 km
>= 3000ft
5 to 8 km
1000 to 3000 ft
1500m to 5 km
500 to 1000 ft
800 to 1500m
200 to 500 ft
< 800m
< 200 ft
Symbols :   Thunderstorms  Fog  Heavy snow  Heavy precipitations  Wind > 20 kt






- Airport Elevation : 761 ft


KRND - Randolph Air Force Base

CURRENT METAR :
  • 021756Z AUTO 19010KT 10SM CLR 33/20 A2993 RMK AO2 SLP126 T03330201 10335 20247 58007

EXPIRED METARs :
  • 021656Z AUTO 20010KT 10SM CLR 32/21 A2994 RMK AO2 SLP129 T03180213
  • 021556Z AUTO 18011G16KT 10SM SCT030 31/22 A2995 RMK AO2 SLP132 T03060216
  • 021506Z AUTO 17009KT 10SM SCT024 30/22 A2995 RMK AO2 SLP132

Expired Forecast.
KZHU FIR / North America



MET'MAP, your aeronautical weather chart ! - Copyright ORBIFLY December 2007 - Disclaimer

ORBIFLY MET'MAP TEAM :

Programming & Development : Alexandra Zaïnal
Original concept : Baudouin d'Aumeries
Technical & hardware support : Manuel Goepfert
Assistance : Marc-Olivier Méhu




SOURCES & CREDITS :

   NOAA       Earth
Advisory